Time;durP1;ratioP1;P1;durP2;ratioP2;P2;SDS_P1;SDS_P2;PMS_P1;PMS_P2;Temp;Humidity;BMP_temperature;BMP_pressure;BME280_temperature;BME280_humidity;BME280_pressure;Samples;Min_cycle;Max_cycle;Signal;HPM_P1;HPM_P2
2023/09/05 00:00:28;;;;;;;9.80;8.00;;;;;;;11.99;95.82;97790.59;108837;1268;22521;-83
2023/09/05 00:03:21;;;;;;;11.80;8.80;;;;;;;12.02;96.07;97786.29;108796;1272;22538;-83
2023/09/05 00:06:04;;;;;;;10.60;7.60;;;;;;;12.11;96.38;97787.02;108808;1272;22631;-83
2023/09/05 00:08:35;;;;;;;8.50;7.30;;;;;;;12.17;96.05;97783.91;108840;1272;24263;-83
2023/09/05 00:11:06;;;;;;;9.90;7.00;;;;;;;12.14;95.99;97784.43;108748;1267;22525;-82
2023/09/05 00:13:37;;;;;;;9.70;6.70;;;;;;;12.15;95.83;97782.42;108800;1272;22515;-83
2023/09/05 00:16:11;;;;;;;8.60;6.50;;;;;;;12.03;95.30;97781.40;108806;1272;22743;-83
2023/09/05 00:18:44;;;;;;;9.40;5.90;;;;;;;11.91;95.64;97778.36;108802;1272;24451;-83
2023/09/05 00:21:18;;;;;;;8.90;6.00;;;;;;;11.83;95.96;97779.77;108853;1272;22528;-83
2023/09/05 00:23:50;;;;;;;8.20;5.60;;;;;;;11.87;96.43;97778.73;108743;1267;22519;-83
2023/09/05 00:26:21;;;;;;;8.20;5.60;;;;;;;11.76;95.59;97774.06;108844;1272;25296;-83
2023/09/05 00:28:52;;;;;;;7.20;6.00;;;;;;;11.62;96.01;97769.34;108858;1267;22550;-83
2023/09/05 00:31:23;;;;;;;9.00;6.00;;;;;;;11.64;96.74;97765.36;108810;1267;29532;-83
2023/09/05 00:33:54;;;;;;;11.10;7.30;;;;;;;11.74;97.04;97768.04;108857;1271;22518;-83
2023/09/05 00:36:26;;;;;;;10.60;7.20;;;;;;;11.72;96.69;97766.48;108819;1272;22628;-83
2023/09/05 00:38:57;;;;;;;10.50;9.30;;;;;;;11.62;96.74;97767.48;108795;1265;23873;-83
2023/09/05 00:41:28;;;;;;;11.90;10.00;;;;;;;11.65;97.85;97767.05;108784;1266;22527;-83
2023/09/05 00:43:59;;;;;;;14.40;10.00;;;;;;;11.72;98.29;97765.73;108773;1270;23320;-83
2023/09/05 00:46:31;;;;;;;11.60;10.30;;;;;;;11.79;98.40;97763.55;108732;1266;22554;-83
2023/09/05 00:49:03;;;;;;;10.70;9.20;;;;;;;11.83;98.45;97762.65;108836;1267;25310;-83
2023/09/05 00:51:35;;;;;;;10.50;8.60;;;;;;;11.92;98.58;97762.63;108883;1270;29126;-83
2023/09/05 00:54:07;;;;;;;9.00;7.50;;;;;;;11.98;98.53;97761.23;108850;1272;22539;-83
2023/09/05 00:56:40;;;;;;;9.10;6.70;;;;;;;12.05;98.43;97758.77;108831;1267;22527;-83
2023/09/05 00:59:12;;;;;;;8.30;6.40;;;;;;;11.97;97.07;97755.11;108854;1271;22597;-83
2023/09/05 01:01:47;;;;;;;9.70;7.00;;;;;;;11.73;96.74;97752.25;108859;1267;22531;-83
2023/09/05 01:04:20;;;;;;;8.90;7.00;;;;;;;11.64;97.21;97747.35;108914;1267;22518;-83
2023/09/05 01:07:01;;;;;;;8.70;6.80;;;;;;;11.61;97.67;97746.17;108834;1264;25230;-83
2023/09/05 01:09:48;;;;;;;10.50;8.00;;;;;;;11.67;98.31;97746.13;108876;1272;22522;-83
2023/09/05 01:12:20;;;;;;;8.50;7.10;;;;;;;11.72;98.57;97747.09;108813;1264;25396;-83
2023/09/05 01:14:51;;;;;;;8.40;7.50;;;;;;;11.80;98.73;97745.13;108909;1272;22537;-83
2023/09/05 01:17:24;;;;;;;8.70;7.10;;;;;;;11.83;98.47;97748.58;108883;1266;22526;-83
2023/09/05 01:19:59;;;;;;;9.30;6.60;;;;;;;11.71;97.60;97751.77;108852;1272;22549;-83
2023/09/05 01:22:42;;;;;;;7.00;5.70;;;;;;;11.58;97.54;97754.98;108795;1270;22511;-83
2023/09/05 01:25:17;;;;;;;8.20;6.00;;;;;;;11.44;97.72;97754.14;108739;1272;22547;-83
2023/09/05 01:27:48;;;;;;;7.20;5.80;;;;;;;11.40;98.54;97750.23;108755;1272;22562;-83
2023/09/05 01:30:20;;;;;;;7.50;6.10;;;;;;;11.45;99.15;97749.69;108754;1266;25216;-82
2023/09/05 01:32:51;;;;;;;8.00;6.20;;;;;;;11.51;99.42;97742.71;108721;1272;22521;-83
2023/09/05 01:35:22;;;;;;;10.90;7.40;;;;;;;11.64;99.56;97748.47;108779;1272;22512;-83
2023/09/05 01:37:53;;;;;;;8.00;6.70;;;;;;;11.68;98.87;97753.91;108749;1266;24282;-83
2023/09/05 01:40:25;;;;;;;7.30;6.10;;;;;;;11.53;98.22;97753.55;108724;1272;26436;-82
2023/09/05 01:42:56;;;;;;;7.30;6.10;;;;;;;11.41;98.70;97753.90;108736;1271;22548;-83
2023/09/05 01:45:27;;;;;;;11.90;8.00;;;;;;;11.39;99.36;97750.77;108740;1266;24212;-82
2023/09/05 01:47:58;;;;;;;8.50;6.80;;;;;;;11.45;99.81;97755.37;108778;1266;22607;-82
2023/09/05 01:50:33;;;;;;;9.60;6.30;;;;;;;11.51;99.96;97754.27;108720;1272;25418;-82
2023/09/05 01:53:05;;;;;;;10.90;5.60;;;;;;;11.61;100.00;97747.51;108751;1271;24209;-83
2023/09/05 01:55:36;;;;;;;7.50;5.80;;;;;;;11.71;99.97;97747.09;108743;1264;22545;-83
2023/09/05 01:58:07;;;;;;;8.80;5.80;;;;;;;11.72;99.19;97749.33;108697;1266;22529;-83
2023/09/05 02:00:42;;;;;;;7.20;5.30;;;;;;;11.60;98.74;97748.77;108713;1272;22536;-82
2023/09/05 02:03:13;;;;;;;7.50;6.00;;;;;;;11.40;98.36;97749.55;108678;1269;22618;-83
2023/09/05 02:05:45;;;;;;;5.20;4.70;;;;;;;11.22;98.52;97747.55;108731;1268;24558;-83
2023/09/05 02:08:16;;;;;;;8.00;5.60;;;;;;;11.19;99.27;97747.85;108775;1266;22516;-83
2023/09/05 02:10:48;;;;;;;6.20;5.60;;;;;;;11.22;99.83;97743.67;108706;1273;25388;-82
2023/09/05 02:13:19;;;;;;;7.40;5.80;;;;;;;11.29;100.00;97744.64;108731;1272;25380;-83
2023/09/05 02:15:50;;;;;;;6.20;5.50;;;;;;;11.37;99.97;97747.12;108772;1272;25367;-83
2023/09/05 02:18:21;;;;;;;12.20;6.10;;;;;;;11.30;99.46;97746.65;108756;1272;22525;-83
2023/09/05 02:20:57;;;;;;;8.40;5.50;;;;;;;11.19;99.27;97748.48;108725;1271;25398;-83
2023/09/05 02:23:28;;;;;;;7.60;6.00;;;;;;;11.06;99.34;97748.16;108795;1272;22511;-83
2023/09/05 02:26:01;;;;;;;6.70;5.50;;;;;;;10.99;99.62;97749.28;108882;1269;22573;-83
2023/09/05 02:28:32;;;;;;;7.40;5.40;;;;;;;10.92;99.75;97751.44;108855;1272;22761;-83
2023/09/05 02:31:07;;;;;;;8.10;6.10;;;;;;;10.89;100.00;97751.69;108852;1266;24438;-82
2023/09/05 02:33:38;;;;;;;9.60;6.00;;;;;;;10.90;100.00;97751.16;108873;1267;25343;-83
2023/09/05 02:36:15;;;;;;;8.40;5.50;;;;;;;10.96;100.00;97746.38;108850;1271;22509;-83
2023/09/05 02:38:47;;;;;;;7.30;6.30;;;;;;;11.05;100.00;97746.30;108876;1271;23164;-83
2023/09/05 02:41:20;;;;;;;9.90;6.90;;;;;;;11.13;100.00;97746.42;108784;1266;22514;-83
2023/09/05 02:43:54;;;;;;;8.80;6.80;;;;;;;11.21;100.00;97746.38;108850;1271;25377;-82
2023/09/05 02:46:25;;;;;;;7.80;6.00;;;;;;;11.27;100.00;97743.40;108820;1271;22515;-83
2023/09/05 02:48:56;;;;;;;10.10;6.50;;;;;;;11.28;100.00;97746.13;108813;1266;22521;-82
2023/09/05 02:51:27;;;;;;;9.70;7.20;;;;;;;11.34;100.00;97746.36;108816;1271;22535;-82
2023/09/05 02:54:00;;;;;;;7.90;7.00;;;;;;;11.39;100.00;97746.35;108788;1271;22550;-83
2023/09/05 02:56:31;;;;;;;8.80;7.00;;;;;;;11.43;100.00;97745.48;108878;1272;22547;-83
2023/09/05 02:59:02;;;;;;;8.40;6.10;;;;;;;11.49;100.00;97748.42;108779;1266;22996;-82
2023/09/05 03:01:33;;;;;;;6.90;5.80;;;;;;;11.49;100.00;97746.52;108811;1267;22518;-83
2023/09/05 03:04:05;;;;;;;8.90;5.70;;;;;;;11.52;100.00;97747.98;108871;1272;22522;-82
2023/09/05 03:06:38;;;;;;;6.50;5.50;;;;;;;11.56;100.00;97747.16;108850;1261;22567;-82
2023/09/05 03:09:12;;;;;;;7.50;5.50;;;;;;;11.45;100.00;97747.40;108836;1271;22518;-82
2023/09/05 03:11:43;;;;;;;7.10;5.10;;;;;;;11.34;100.00;97749.92;108786;1271;22519;-82
2023/09/05 03:14:14;;;;;;;6.80;5.50;;;;;;;11.20;100.00;97751.88;108796;1266;25313;-82
2023/09/05 03:16:45;;;;;;;7.80;6.00;;;;;;;11.11;100.00;97752.83;108854;1264;22532;-82
2023/09/05 03:19:21;;;;;;;7.10;5.90;;;;;;;11.12;100.00;97758.79;108863;1271;23975;-82
2023/09/05 03:21:55;;;;;;;9.20;6.50;;;;;;;11.18;100.00;97753.31;108837;1267;25755;-82
2023/09/05 03:24:27;;;;;;;7.00;5.70;;;;;;;11.07;100.00;97752.85;108819;1267;22515;-82
2023/09/05 03:26:58;;;;;;;6.70;6.00;;;;;;;10.97;100.00;97746.77;108838;1271;22532;-82
2023/09/05 03:29:29;;;;;;;8.10;6.80;;;;;;;10.90;100.00;97751.21;108864;1269;22512;-82
2023/09/05 03:32:00;;;;;;;10.60;7.50;;;;;;;10.88;100.00;97752.69;108799;1266;24397;-82
2023/09/05 03:34:34;;;;;;;10.20;6.80;;;;;;;10.89;100.00;97752.33;108674;1271;239633;-82
2023/09/05 03:37:05;;;;;;;7.40;6.50;;;;;;;10.94;100.00;97751.18;108821;1272;22526;-82
2023/09/05 03:39:37;;;;;;;8.10;6.80;;;;;;;10.96;100.00;97749.24;108848;1265;25375;-82
2023/09/05 03:42:11;;;;;;;8.70;6.90;;;;;;;10.99;100.00;97749.65;108747;1266;23871;-82
2023/09/05 03:44:46;;;;;;;8.60;6.60;;;;;;;11.05;100.00;97753.04;108842;1272;22519;-82
2023/09/05 03:47:17;;;;;;;8.60;7.00;;;;;;;11.09;100.00;97754.34;108820;1269;25334;-82
2023/09/05 03:49:50;;;;;;;9.20;6.40;;;;;;;11.00;100.00;97751.77;108805;1272;24211;-82
2023/09/05 03:52:22;;;;;;;8.70;6.50;;;;;;;10.92;100.00;97755.53;108814;1261;23986;-82
2023/09/05 03:54:56;;;;;;;10.10;7.40;;;;;;;10.93;100.00;97760.69;108836;1271;25338;-82
2023/09/05 03:57:27;;;;;;;9.00;7.20;;;;;;;10.97;100.00;97755.45;108831;1272;22511;-82
2023/09/05 03:59:58;;;;;;;10.90;7.50;;;;;;;10.99;100.00;97753.85;108856;1269;22523;-82
2023/09/05 04:02:29;;;;;;;10.20;7.50;;;;;;;11.02;100.00;97753.23;108694;1266;26036;-82
2023/09/05 04:05:00;;;;;;;9.10;7.30;;;;;;;11.08;100.00;97759.39;108885;1271;22515;-82
2023/09/05 04:07:31;;;;;;;7.60;6.70;;;;;;;11.14;100.00;97757.05;108844;1265;22550;-82
2023/09/05 04:10:02;;;;;;;10.00;7.20;;;;;;;11.13;100.00;97755.29;108772;1266;22514;-82
2023/09/05 04:12:33;;;;;;;8.10;7.30;;;;;;;11.11;100.00;97756.91;108812;1271;23483;-82
2023/09/05 04:15:05;;;;;;;8.40;7.20;;;;;;;11.14;100.00;97760.02;108825;1271;22720;-82
2023/09/05 04:17:37;;;;;;;9.60;7.10;;;;;;;11.28;100.00;97756.84;108831;1269;22532;-82
2023/09/05 04:20:12;;;;;;;8.60;7.70;;;;;;;11.46;100.00;97756.11;108837;1271;22618;-83
2023/09/05 04:22:43;;;;;;;8.70;7.60;;;;;;;11.70;100.00;97756.20;108824;1272;22525;-82
2023/09/05 04:25:15;;;;;;;7.60;6.80;;;;;;;11.89;100.00;97760.07;108788;1272;22514;-82
2023/09/05 04:27:51;;;;;;;8.10;7.20;;;;;;;12.18;100.00;97760.09;108807;1271;22543;-82
2023/09/05 04:30:24;;;;;;;7.60;5.80;;;;;;;12.54;100.00;97762.14;108815;1272;22547;-82
2023/09/05 04:32:57;;;;;;;7.90;5.70;;;;;;;12.90;100.00;97756.61;108802;1272;25370;-82
2023/09/05 04:35:28;;;;;;;7.50;4.90;;;;;;;13.10;100.00;97751.90;108876;1271;27143;-82
2023/09/05 04:37:59;;;;;;;6.70;4.90;;;;;;;13.05;100.00;97754.92;108865;1271;22514;-82
2023/09/05 04:40:32;;;;;;;6.80;5.50;;;;;;;13.23;100.00;97753.77;108835;1272;22521;-82
2023/09/05 04:43:03;;;;;;;6.20;4.80;;;;;;;13.54;100.00;97754.28;108870;1265;23003;-82
2023/09/05 04:45:34;;;;;;;8.20;4.90;;;;;;;13.83;99.95;97760.04;108878;1269;22543;-83
2023/09/05 04:48:10;;;;;;;7.80;5.30;;;;;;;13.93;99.06;97756.60;108782;1272;22532;-83
2023/09/05 04:50:42;;;;;;;5.90;4.90;;;;;;;14.04;99.12;97756.68;108776;1271;26602;-82
2023/09/05 04:53:14;;;;;;;6.40;4.70;;;;;;;14.42;99.90;97757.17;108782;1271;23380;-83
2023/09/05 04:55:48;;;;;;;6.30;4.30;;;;;;;14.96;100.00;97750.41;108846;1271;22518;-83
2023/09/05 04:58:19;;;;;;;5.40;4.30;;;;;;;15.50;100.00;97750.77;108806;1272;22530;-83
2023/09/05 05:00:50;;;;;;;6.60;4.00;;;;;;;15.98;99.49;97752.29;108806;1267;22601;-82
2023/09/05 05:03:21;;;;;;;5.20;4.00;;;;;;;16.30;97.67;97754.32;108819;1264;25507;-83
2023/09/05 05:05:55;;;;;;;4.60;3.80;;;;;;;16.49;96.53;97755.14;108859;1271;22954;-83
2023/09/05 05:08:26;;;;;;;5.90;4.10;;;;;;;16.82;96.40;97754.66;108870;1271;22641;-82
2023/09/05 05:10:57;;;;;;;5.70;4.50;;;;;;;17.19;96.03;97756.73;108800;1271;22619;-82
2023/09/05 05:13:28;;;;;;;5.20;4.00;;;;;;;17.63;95.57;97759.64;108859;1265;22504;-82
2023/09/05 05:16:00;;;;;;;5.90;3.70;;;;;;;18.11;95.14;97757.26;108805;1271;22670;-83
2023/09/05 05:18:31;;;;;;;5.50;3.90;;;;;;;18.45;93.69;97758.98;108837;1267;24266;-83
2023/09/05 05:21:02;;;;;;;6.30;3.80;;;;;;;18.82;92.69;97759.77;108775;1272;23835;-82
2023/09/05 05:23:33;;;;;;;4.60;3.90;;;;;;;19.24;91.62;97761.64;108864;1271;22922;-82
2023/09/05 05:26:03;;;;;;;5.30;3.80;;;;;;;19.62;90.70;97759.73;108863;1271;22550;-82
2023/09/05 05:28:41;;;;;;;5.20;3.60;;;;;;;19.94;89.45;97760.39;108825;1271;22560;-82
2023/09/05 05:31:18;;;;;;;6.10;3.50;;;;;;;20.21;87.69;97760.08;108830;1272;22516;-82
2023/09/05 05:33:49;;;;;;;5.20;3.80;;;;;;;20.45;86.85;97758.90;108780;1271;22537;-83
2023/09/05 05:36:21;;;;;;;5.60;3.80;;;;;;;20.69;86.20;97763.59;108832;1272;22530;-82
2023/09/05 05:38:52;;;;;;;5.70;4.30;;;;;;;20.99;85.82;97768.77;108858;1266;24221;-82
2023/09/05 05:41:25;;;;;;;5.70;3.90;;;;;;;21.26;84.56;97766.40;108771;1266;22762;-80
2023/09/05 05:43:56;;;;;;;4.40;3.60;;;;;;;21.51;83.59;97764.98;108795;1271;22526;-80
2023/09/05 05:46:27;;;;;;;5.00;3.60;;;;;;;21.77;82.03;97762.40;108807;1271;22511;-80
2023/09/05 05:48:58;;;;;;;8.30;4.60;;;;;;;21.95;80.60;97766.13;108859;1270;22518;-82
2023/09/05 05:51:30;;;;;;;5.60;4.50;;;;;;;22.10;79.79;97763.16;108860;1269;24394;-82
2023/09/05 05:54:01;;;;;;;5.20;4.10;;;;;;;22.36;79.78;97761.32;108821;1271;22568;-82
2023/09/05 05:56:32;;;;;;;5.50;3.90;;;;;;;22.59;78.84;97763.29;108831;1266;22517;-82
2023/09/05 05:59:03;;;;;;;5.60;3.90;;;;;;;22.81;78.99;97755.32;108776;1266;22612;-82
2023/09/05 06:01:34;;;;;;;4.20;3.40;;;;;;;22.95;78.10;97752.92;108843;1271;22567;-82
2023/09/05 06:04:05;;;;;;;4.20;3.40;;;;;;;23.13;77.51;97755.98;108812;1266;22518;-83
2023/09/05 06:06:38;;;;;;;4.50;3.60;;;;;;;23.13;76.60;97755.59;108796;1271;25247;-82
2023/09/05 06:09:09;;;;;;;5.10;3.80;;;;;;;22.83;75.70;97753.08;108857;1271;22522;-83
2023/09/05 06:11:42;;;;;;;5.00;4.10;;;;;;;22.59;75.44;97757.02;108780;1260;24836;-82
2023/09/05 06:14:14;;;;;;;5.70;3.50;;;;;;;22.60;74.90;97760.83;108768;1272;22537;-83
2023/09/05 06:16:47;;;;;;;4.10;3.70;;;;;;;22.68;74.89;97763.86;108843;1271;22518;-83
2023/09/05 06:19:18;;;;;;;7.90;4.10;;;;;;;22.81;74.45;97763.36;108839;1271;22511;-83
2023/09/05 06:21:49;;;;;;;5.90;4.10;;;;;;;22.82;73.40;97763.92;108806;1266;24382;-83
2023/09/05 06:24:20;;;;;;;6.00;3.90;;;;;;;22.80;72.46;97762.05;108827;1271;22605;-83
2023/09/05 06:26:54;;;;;;;5.50;3.80;;;;;;;22.82;72.57;97759.33;108830;1266;22978;-82
2023/09/05 06:29:25;;;;;;;4.50;3.30;;;;;;;22.75;71.81;97760.78;108801;1272;22649;-83
2023/09/05 06:31:56;;;;;;;4.90;3.40;;;;;;;22.70;71.70;97763.71;108771;1272;22545;-83
2023/09/05 06:34:27;;;;;;;6.10;3.70;;;;;;;22.61;71.70;97762.04;108805;1271;22530;-83
2023/09/05 06:36:59;;;;;;;5.30;3.70;;;;;;;22.46;70.67;97763.75;108794;1266;22556;-83
2023/09/05 06:39:30;;;;;;;6.50;3.50;;;;;;;22.24;70.70;97766.31;108840;1271;22505;-83
2023/09/05 06:42:01;;;;;;;9.30;4.20;;;;;;;21.98;70.19;97768.27;108761;1266;23014;-82
2023/09/05 06:44:33;;;;;;;7.10;3.90;;;;;;;21.85;70.44;97770.27;108802;1267;22522;-83
2023/09/05 06:47:04;;;;;;;9.20;4.10;;;;;;;21.69;70.10;97769.52;108811;1264;22530;-83
2023/09/05 06:49:35;;;;;;;10.40;4.50;;;;;;;21.61;70.17;97769.88;108876;1267;22508;-83
2023/09/05 06:52:07;;;;;;;11.40;5.10;;;;;;;21.63;70.53;97771.65;108830;1271;24185;-82
2023/09/05 06:54:42;;;;;;;8.80;4.70;;;;;;;21.64;70.27;97773.02;108844;1267;22564;-82
2023/09/05 06:57:13;;;;;;;8.10;4.10;;;;;;;21.51;69.87;97774.09;108756;1271;24491;-82
2023/09/05 06:59:49;;;;;;;6.50;4.70;;;;;;;21.44;70.49;97776.96;108806;1266;22545;-83
2023/09/05 07:02:21;;;;;;;5.50;4.20;;;;;;;21.49;70.13;97774.41;108833;1266;25272;-82
2023/09/05 07:04:51;;;;;;;6.80;4.50;;;;;;;21.38;70.00;97772.63;108809;1272;22505;-83
2023/09/05 07:07:22;;;;;;;7.60;5.00;;;;;;;21.38;70.53;97774.02;108834;1265;22526;-83
2023/09/05 07:09:54;;;;;;;7.10;4.40;;;;;;;21.59;70.74;97774.30;108793;1266;22549;-83
2023/09/05 07:12:25;;;;;;;8.80;5.20;;;;;;;21.67;70.04;97776.75;108785;1266;22529;-83
2023/09/05 07:14:56;;;;;;;6.90;4.10;;;;;;;21.73;69.99;97776.55;108744;1272;22508;-82
2023/09/05 07:17:28;;;;;;;6.80;4.40;;;;;;;21.81;69.93;97779.73;108862;1271;22518;-82
2023/09/05 07:19:58;;;;;;;7.90;4.60;;;;;;;21.87;69.66;97778.16;108849;1271;22562;-83
2023/09/05 07:22:29;;;;;;;5.30;4.00;;;;;;;22.03;69.98;97777.26;108765;1271;22562;-83
2023/09/05 07:25:00;;;;;;;5.10;3.90;;;;;;;22.03;69.25;97782.84;108858;1264;22550;-82
2023/09/05 07:27:31;;;;;;;7.90;4.30;;;;;;;21.98;68.87;97777.46;108775;1266;25321;-82
2023/09/05 07:30:02;;;;;;;5.40;4.40;;;;;;;21.98;69.10;97777.98;108890;1271;22528;-83
2023/09/05 07:32:34;;;;;;;8.50;4.70;;;;;;;22.02;69.30;97774.15;108819;1266;25401;-83
2023/09/05 07:35:06;;;;;;;8.90;5.40;;;;;;;22.07;68.37;97769.88;108750;1271;25405;-83
2023/09/05 07:37:38;;;;;;;7.50;5.20;;;;;;;21.93;67.62;97775.00;108815;1272;22535;-83
2023/09/05 07:40:14;;;;;;;7.70;5.60;;;;;;;21.84;67.89;97777.04;108781;1266;23072;-83
2023/09/05 07:42:48;;;;;;;7.90;5.70;;;;;;;21.97;68.47;97776.02;108826;1271;22514;-83
2023/09/05 07:45:21;;;;;;;9.90;5.80;;;;;;;22.18;69.13;97780.04;108823;1271;22638;-83
2023/09/05 07:47:52;;;;;;;6.80;4.50;;;;;;;22.40;68.64;97776.82;108831;1269;22628;-83
2023/09/05 07:50:23;;;;;;;8.00;4.50;;;;;;;22.46;68.12;97773.86;108777;1271;23348;-82
2023/09/05 07:52:56;;;;;;;8.70;4.60;;;;;;;22.44;67.45;97770.14;108764;1271;22505;-83
2023/09/05 07:55:27;;;;;;;7.80;4.40;;;;;;;22.32;67.02;97768.40;108801;1267;25275;-83
2023/09/05 07:57:58;;;;;;;6.10;4.20;;;;;;;22.42;67.58;97766.98;108832;1271;22574;-83
2023/09/05 08:00:29;;;;;;;5.70;4.20;;;;;;;22.54;67.22;97764.48;108777;1271;22614;-83
2023/09/05 08:03:03;;;;;;;7.00;4.10;;;;;;;22.70;67.49;97762.92;108810;1271;25443;-83
2023/09/05 08:05:34;;;;;;;5.00;3.70;;;;;;;22.84;67.50;97762.33;108815;1266;22629;-83
2023/09/05 08:08:05;;;;;;;5.70;3.80;;;;;;;22.99;66.88;97762.73;108798;1271;22617;-83
2023/09/05 08:10:37;;;;;;;4.40;3.30;;;;;;;23.06;66.91;97756.80;108784;1266;22504;-83
2023/09/05 08:13:09;;;;;;;5.40;4.00;;;;;;;23.09;66.07;97759.09;108792;1272;22563;-83
2023/09/05 08:15:43;;;;;;;4.90;3.70;;;;;;;22.89;65.42;97760.65;108804;1271;22623;-83
2023/09/05 08:18:17;;;;;;;5.40;4.00;;;;;;;22.98;65.97;97765.00;108808;1272;24129;-83
2023/09/05 08:20:48;;;;;;;3.80;3.40;;;;;;;22.99;65.41;97761.21;108782;1271;22514;-83
2023/09/05 08:23:19;;;;;;;7.10;3.70;;;;;;;23.06;65.59;97757.04;108824;1271;27575;-83
2023/09/05 08:25:51;;;;;;;4.00;3.30;;;;;;;23.19;65.83;97761.45;108784;1272;22527;-83
2023/09/05 08:28:22;;;;;;;5.00;3.30;;;;;;;23.32;65.61;97759.80;108859;1271;22511;-83
2023/09/05 08:30:59;;;;;;;5.30;3.60;;;;;;;23.39;65.29;97757.39;108741;1266;24419;-83
2023/09/05 08:33:30;;;;;;;5.10;3.40;;;;;;;23.25;64.58;97757.64;108767;1271;23093;-83
2023/09/05 08:36:01;;;;;;;5.70;3.50;;;;;;;23.02;64.39;97752.97;108749;1267;22511;-83
2023/09/05 08:38:32;;;;;;;4.30;3.50;;;;;;;22.95;64.25;97748.61;108805;1266;22522;-83
2023/09/05 08:41:03;;;;;;;4.70;4.00;;;;;;;22.77;63.64;97744.98;108750;1266;22537;-83
2023/09/05 08:43:35;;;;;;;4.40;3.50;;;;;;;22.77;64.58;97741.98;108815;1271;25173;-83
2023/09/05 08:46:07;;;;;;;6.20;3.80;;;;;;;22.98;64.94;97741.00;108861;1266;22547;-83
2023/09/05 08:48:42;;;;;;;5.30;4.10;;;;;;;23.11;64.88;97740.07;108774;1269;22596;-83
2023/09/05 08:51:16;;;;;;;5.70;4.40;;;;;;;23.12;63.96;97741.95;108795;1271;24250;-83
2023/09/05 08:53:56;;;;;;;9.70;4.60;;;;;;;23.02;63.89;97740.73;108814;1266;22922;-83
2023/09/05 08:56:28;;;;;;;5.10;3.80;;;;;;;23.03;64.13;97743.73;108823;1267;22526;-83
2023/09/05 08:59:00;;;;;;;5.80;4.30;;;;;;;23.10;64.04;97742.41;108832;1272;22674;-83
2023/09/05 09:01:37;;;;;;;7.60;5.20;;;;;;;23.18;63.65;97745.61;108815;1265;22501;-83
2023/09/05 09:04:09;;;;;;;6.60;5.40;;;;;;;23.15;63.89;97739.82;108802;1271;25367;-83
2023/09/05 09:06:41;;;;;;;7.40;5.30;;;;;;;23.22;64.35;97740.13;108814;1263;22531;-84
2023/09/05 09:09:34;;;;;;;6.00;4.10;;;;;;;23.26;64.09;97736.19;108787;1271;22701;-84
2023/09/05 09:12:07;;;;;;;7.70;5.10;;;;;;;23.28;64.27;97737.34;108780;1266;22522;-83
2023/09/05 09:14:44;;;;;;;6.40;4.40;;;;;;;23.35;64.27;97739.75;108879;1272;26557;-83
2023/09/05 09:17:16;;;;;;;6.40;4.70;;;;;;;23.39;64.12;97740.29;108858;1266;22514;-83
2023/09/05 09:19:49;;;;;;;6.30;3.80;;;;;;;23.40;63.85;97735.29;108810;1271;25408;-83
2023/09/05 09:22:25;;;;;;;6.00;4.10;;;;;;;23.31;63.42;97736.60;108770;1271;22518;-83
2023/09/05 09:24:56;;;;;;;7.00;3.80;;;;;;;23.30;63.42;97740.42;108884;1266;22516;-83
2023/09/05 09:27:27;;;;;;;5.70;3.90;;;;;;;23.16;63.45;97738.70;108821;1267;22643;-83
2023/09/05 09:29:58;;;;;;;5.10;3.90;;;;;;;23.15;63.96;97735.42;108779;1269;22592;-83
2023/09/05 09:32:29;;;;;;;6.00;3.70;;;;;;;23.17;63.75;97736.33;108811;1268;22521;-83
2023/09/05 09:35:00;;;;;;;5.00;3.80;;;;;;;23.18;63.68;97730.49;108781;1269;22522;-83
2023/09/05 09:37:32;;;;;;;6.60;4.50;;;;;;;23.24;64.10;97732.04;108834;1271;22914;-83
2023/09/05 09:40:05;;;;;;;5.40;4.10;;;;;;;23.24;63.88;97734.01;108758;1271;24430;-83
2023/09/05 09:42:37;;;;;;;5.50;3.70;;;;;;;23.07;63.80;97732.02;108763;1271;25579;-83
2023/09/05 09:45:12;;;;;;;5.60;3.90;;;;;;;23.03;63.90;97732.51;108795;1266;25265;-83
2023/09/05 09:47:48;;;;;;;5.80;4.10;;;;;;;22.95;63.65;97732.85;108734;1266;22509;-84
2023/09/05 09:50:20;;;;;;;5.70;3.80;;;;;;;22.91;63.73;97731.05;108799;1271;22536;-77
2023/09/05 09:52:57;;;;;;;4.70;3.90;;;;;;;22.85;63.60;97734.48;108846;1266;22585;-83
2023/09/05 09:55:32;;;;;;;6.10;3.70;;;;;;;22.80;63.14;97736.89;108793;1271;22510;-84
2023/09/05 09:58:14;;;;;;;5.20;3.80;;;;;;;22.75;63.09;97738.95;108790;1267;22517;-83
2023/09/05 10:00:46;;;;;;;5.30;3.90;;;;;;;22.73;63.67;97736.73;108774;1272;24209;-84
2023/09/05 10:03:24;;;;;;;4.60;3.70;;;;;;;22.76;63.84;97731.41;108902;1271;22592;-84
2023/09/05 10:06:00;;;;;;;5.40;4.00;;;;;;;22.70;62.61;97729.25;108895;1267;22981;-84
2023/09/05 10:08:33;;;;;;;5.70;4.30;;;;;;;22.68;63.30;97727.19;108950;1271;22854;-83
2023/09/05 10:11:09;;;;;;;4.70;4.20;;;;;;;22.51;62.92;97729.38;108839;1271;22530;-83
2023/09/05 10:13:43;;;;;;;9.50;3.70;;;;;;;22.38;63.27;97722.05;108776;1266;22569;-84
2023/09/05 10:16:18;;;;;;;4.40;3.30;;;;;;;22.31;62.63;97722.77;108790;1271;24198;-83
2023/09/05 10:18:49;;;;;;;4.00;2.90;;;;;;;22.19;61.21;97723.36;108859;1271;25323;-83
2023/09/05 10:21:23;;;;;;;3.40;2.70;;;;;;;21.95;59.88;97720.63;108726;1269;22515;-83
2023/09/05 10:23:54;;;;;;;4.80;2.90;;;;;;;21.63;56.96;97718.48;108807;1271;22515;-83
2023/09/05 10:26:26;;;;;;;3.90;2.20;;;;;;;21.57;58.04;97719.00;108808;1269;22535;-83
2023/09/05 10:28:59;;;;;;;7.10;3.60;;;;;;;21.62;57.50;97719.61;108763;1266;22517;-83
2023/09/05 10:31:32;;;;;;;7.40;3.60;;;;;;;21.58;56.46;97716.48;108765;1266;22528;-83
2023/09/05 10:34:04;;;;;;;9.20;4.60;;;;;;;21.49;56.22;97717.20;108752;1271;22536;-83
2023/09/05 10:36:46;;;;;;;4.30;3.00;;;;;;;21.53;56.95;97714.12;108766;1272;22518;-83
2023/09/05 10:39:24;;;;;;;2.60;2.00;;;;;;;21.54;55.05;97716.31;108816;1266;22525;-84
2023/09/05 10:41:55;;;;;;;3.70;2.60;;;;;;;21.31;52.77;97714.59;108777;1271;22530;-83
2023/09/05 10:44:27;;;;;;;4.10;2.00;;;;;;;21.27;53.57;97710.64;108843;1271;24228;-83
2023/09/05 10:47:18;;;;;;;2.80;2.10;;;;;;;21.30;53.13;97707.33;108798;1268;22531;-83
2023/09/05 10:49:49;;;;;;;2.80;2.20;;;;;;;21.40;53.64;97703.17;108826;1250;22518;-83
2023/09/05 10:52:21;;;;;;;4.00;2.40;;;;;;;21.53;54.56;97696.31;108776;1269;22519;-83
2023/09/05 10:54:55;;;;;;;3.80;2.40;;;;;;;21.65;54.71;97695.88;108793;1271;22525;-84
2023/09/05 10:57:42;;;;;;;3.10;2.50;;;;;;;21.74;55.58;97696.77;108747;1267;22515;-83
2023/09/05 11:00:38;;;;;;;4.00;2.50;;;;;;;21.74;54.26;97691.02;108804;1271;25026;-83
2023/09/05 11:03:17;;;;;;;3.60;2.70;;;;;;;21.57;53.37;97691.31;108833;1271;22577;-83
2023/09/05 11:05:50;;;;;;;3.40;2.60;;;;;;;21.57;54.05;97690.63;108810;1266;25392;-82
2023/09/05 11:08:24;;;;;;;3.30;2.50;;;;;;;21.64;53.99;97687.89;108761;1272;22527;-83
2023/09/05 11:10:56;;;;;;;3.60;2.20;;;;;;;21.77;54.26;97686.02;108728;1271;26592;-82
2023/09/05 11:13:27;;;;;;;4.70;2.90;;;;;;;21.80;53.66;97679.89;108787;1267;22521;-83
2023/09/05 11:16:02;;;;;;;4.10;2.50;;;;;;;21.71;53.12;97675.92;108817;1272;25330;-83
2023/09/05 11:18:43;;;;;;;3.60;2.60;;;;;;;21.65;53.25;97668.80;108789;1265;24249;-83
2023/09/05 11:21:23;;;;;;;3.60;2.20;;;;;;;21.61;53.49;97665.67;108786;1271;24228;-83
2023/09/05 11:23:55;;;;;;;3.70;2.50;;;;;;;21.58;53.19;97663.70;108782;1271;22533;-83
2023/09/05 11:26:27;;;;;;;3.90;2.80;;;;;;;21.57;53.26;97662.11;108758;1251;22518;-83
2023/09/05 11:28:59;;;;;;;3.50;2.80;;;;;;;21.54;53.27;97658.13;108771;1271;22514;-83
2023/09/05 11:31:30;;;;;;;5.10;3.20;;;;;;;21.66;54.06;97642.41;108810;1271;24240;-83
2023/09/05 11:34:02;;;;;;;4.00;2.60;;;;;;;21.82;55.18;97639.64;108780;1271;22634;-83
2023/09/05 11:36:34;;;;;;;4.90;2.80;;;;;;;22.00;55.81;97645.83;108769;1266;22529;-83
2023/09/05 11:39:08;;;;;;;4.00;2.80;;;;;;;22.09;55.57;97643.51;108826;1264;22519;-83
2023/09/05 11:41:42;;;;;;;5.60;2.80;;;;;;;22.12;55.36;97641.33;108760;1269;22510;-83
2023/09/05 11:44:14;;;;;;;3.50;2.90;;;;;;;22.01;53.54;97644.23;108798;1271;22555;-80
2023/09/05 11:46:45;;;;;;;4.60;2.60;;;;;;;21.77;52.89;97647.32;108791;1272;25421;-80